sensor_id;sensor_type;location;lat;lon;timestamp;temperature;humidity
40808;DHT22;26523;52.504;13.498;2023-04-03T00:00:50;0.60;99.90
40808;DHT22;26523;52.504;13.498;2023-04-03T00:03:17;0.60;99.90
40808;DHT22;26523;52.504;13.498;2023-04-03T00:05:43;0.60;99.90
40808;DHT22;26523;52.504;13.498;2023-04-03T00:08:13;0.50;99.90
40808;DHT22;26523;52.504;13.498;2023-04-03T00:10:39;0.50;99.90
40808;DHT22;26523;52.504;13.498;2023-04-03T00:13:06;0.50;99.90
40808;DHT22;26523;52.504;13.498;2023-04-03T00:15:32;0.50;99.90
40808;DHT22;26523;52.504;13.498;2023-04-03T00:17:58;0.40;99.90
40808;DHT22;26523;52.504;13.498;2023-04-03T00:20:24;0.40;99.90
40808;DHT22;26523;52.504;13.498;2023-04-03T00:22:50;0.40;99.90
40808;DHT22;26523;52.504;13.498;2023-04-03T00:25:16;0.40;99.90
40808;DHT22;26523;52.504;13.498;2023-04-03T00:27:41;0.40;99.90
40808;DHT22;26523;52.504;13.498;2023-04-03T00:30:08;0.40;99.90
40808;DHT22;26523;52.504;13.498;2023-04-03T00:32:35;0.40;99.90
40808;DHT22;26523;52.504;13.498;2023-04-03T00:35:01;0.30;99.90
40808;DHT22;26523;52.504;13.498;2023-04-03T00:37:27;0.30;99.90
40808;DHT22;26523;52.504;13.498;2023-04-03T00:39:52;0.30;99.90
40808;DHT22;26523;52.504;13.498;2023-04-03T00:42:18;0.30;99.90
40808;DHT22;26523;52.504;13.498;2023-04-03T00:47:13;0.30;99.90
40808;DHT22;26523;52.504;13.498;2023-04-03T00:49:40;0.30;99.90
40808;DHT22;26523;52.504;13.498;2023-04-03T00:52:07;0.30;99.90
40808;DHT22;26523;52.504;13.498;2023-04-03T00:54:35;0.30;99.90
40808;DHT22;26523;52.504;13.498;2023-04-03T00:57:01;0.30;99.90
40808;DHT22;26523;52.504;13.498;2023-04-03T00:59:32;0.30;99.90
40808;DHT22;26523;52.504;13.498;2023-04-03T01:02:00;0.30;99.90
40808;DHT22;26523;52.504;13.498;2023-04-03T01:04:31;0.20;99.90
40808;DHT22;26523;52.504;13.498;2023-04-03T01:07:00;0.20;99.90
40808;DHT22;26523;52.504;13.498;2023-04-03T01:09:26;0.20;99.90
40808;DHT22;26523;52.504;13.498;2023-04-03T01:11:53;0.20;99.90
40808;DHT22;26523;52.504;13.498;2023-04-03T01:14:19;0.20;99.90
40808;DHT22;26523;52.504;13.498;2023-04-03T01:16:54;0.20;99.90
40808;DHT22;26523;52.504;13.498;2023-04-03T01:19:21;0.10;99.90
40808;DHT22;26523;52.504;13.498;2023-04-03T01:22:17;0.20;99.90
40808;DHT22;26523;52.504;13.498;2023-04-03T01:24:45;0.10;99.90
40808;DHT22;26523;52.504;13.498;2023-04-03T01:27:12;0.10;99.90
40808;DHT22;26523;52.504;13.498;2023-04-03T01:29:38;0.00;99.90
40808;DHT22;26523;52.504;13.498;2023-04-03T01:32:05;0.00;99.90
40808;DHT22;26523;52.504;13.498;2023-04-03T01:34:31;0.00;99.90
40808;DHT22;26523;52.504;13.498;2023-04-03T01:36:57;0.00;99.90
40808;DHT22;26523;52.504;13.498;2023-04-03T01:39:23;-0.10;99.90
40808;DHT22;26523;52.504;13.498;2023-04-03T01:41:49;-0.10;99.90
40808;DHT22;26523;52.504;13.498;2023-04-03T01:44:15;-0.10;99.90
40808;DHT22;26523;52.504;13.498;2023-04-03T01:46:41;-0.10;99.90
40808;DHT22;26523;52.504;13.498;2023-04-03T01:49:07;-0.20;99.90
40808;DHT22;26523;52.504;13.498;2023-04-03T01:51:33;-0.20;99.90
40808;DHT22;26523;52.504;13.498;2023-04-03T01:53:59;-0.30;99.90
40808;DHT22;26523;52.504;13.498;2023-04-03T01:56:24;-0.30;99.90
40808;DHT22;26523;52.504;13.498;2023-04-03T01:58:50;-0.20;99.90
40808;DHT22;26523;52.504;13.498;2023-04-03T02:01:16;-0.20;99.90
40808;DHT22;26523;52.504;13.498;2023-04-03T02:03:42;-0.30;99.90
40808;DHT22;26523;52.504;13.498;2023-04-03T02:06:08;-0.20;99.90
40808;DHT22;26523;52.504;13.498;2023-04-03T02:08:33;-0.30;99.90
40808;DHT22;26523;52.504;13.498;2023-04-03T02:10:59;-0.30;99.90
40808;DHT22;26523;52.504;13.498;2023-04-03T02:13:25;-0.40;99.90
40808;DHT22;26523;52.504;13.498;2023-04-03T02:15:51;-0.40;99.90
40808;DHT22;26523;52.504;13.498;2023-04-03T02:18:17;-0.50;99.90
40808;DHT22;26523;52.504;13.498;2023-04-03T02:20:42;-0.50;99.90
40808;DHT22;26523;52.504;13.498;2023-04-03T02:23:08;-0.40;99.90
40808;DHT22;26523;52.504;13.498;2023-04-03T02:25:34;-0.40;99.90
40808;DHT22;26523;52.504;13.498;2023-04-03T02:28:00;-0.50;99.90
40808;DHT22;26523;52.504;13.498;2023-04-03T02:30:25;-0.50;99.90
40808;DHT22;26523;52.504;13.498;2023-04-03T02:32:51;-0.50;99.90
40808;DHT22;26523;52.504;13.498;2023-04-03T02:35:17;-0.50;99.90
40808;DHT22;26523;52.504;13.498;2023-04-03T02:37:43;-0.60;99.90
40808;DHT22;26523;52.504;13.498;2023-04-03T02:40:09;-0.60;99.90
40808;DHT22;26523;52.504;13.498;2023-04-03T02:42:37;-0.60;99.90
40808;DHT22;26523;52.504;13.498;2023-04-03T02:45:02;-0.60;99.90
40808;DHT22;26523;52.504;13.498;2023-04-03T02:47:28;-0.50;99.90
40808;DHT22;26523;52.504;13.498;2023-04-03T02:49:54;-0.50;99.90
40808;DHT22;26523;52.504;13.498;2023-04-03T02:52:20;-0.50;99.90
40808;DHT22;26523;52.504;13.498;2023-04-03T02:54:46;-0.50;99.90
40808;DHT22;26523;52.504;13.498;2023-04-03T02:57:11;-0.60;99.90
40808;DHT22;26523;52.504;13.498;2023-04-03T02:59:37;-0.60;99.90
40808;DHT22;26523;52.504;13.498;2023-04-03T03:02:10;-0.70;99.90
40808;DHT22;26523;52.504;13.498;2023-04-03T03:04:36;-0.70;99.90
40808;DHT22;26523;52.504;13.498;2023-04-03T03:07:02;-0.80;99.90
40808;DHT22;26523;52.504;13.498;2023-04-03T03:09:28;-0.80;99.90
40808;DHT22;26523;52.504;13.498;2023-04-03T03:11:55;-0.80;99.90
40808;DHT22;26523;52.504;13.498;2023-04-03T03:14:20;-0.80;99.90
40808;DHT22;26523;52.504;13.498;2023-04-03T03:16:46;-0.80;99.90
40808;DHT22;26523;52.504;13.498;2023-04-03T03:19:12;-0.70;99.90
40808;DHT22;26523;52.504;13.498;2023-04-03T03:21:37;-0.80;99.90
40808;DHT22;26523;52.504;13.498;2023-04-03T03:24:03;-0.80;99.90
40808;DHT22;26523;52.504;13.498;2023-04-03T03:26:29;-0.90;99.90
40808;DHT22;26523;52.504;13.498;2023-04-03T03:28:55;-0.90;99.90
40808;DHT22;26523;52.504;13.498;2023-04-03T03:31:21;-0.90;99.90
40808;DHT22;26523;52.504;13.498;2023-04-03T03:33:46;-0.90;99.90
40808;DHT22;26523;52.504;13.498;2023-04-03T03:36:12;-0.90;99.90
40808;DHT22;26523;52.504;13.498;2023-04-03T03:38:38;-1.00;99.90
40808;DHT22;26523;52.504;13.498;2023-04-03T03:41:04;-1.00;99.90
40808;DHT22;26523;52.504;13.498;2023-04-03T03:43:29;-1.00;99.90
40808;DHT22;26523;52.504;13.498;2023-04-03T03:45:55;-1.00;99.90
40808;DHT22;26523;52.504;13.498;2023-04-03T03:48:22;-1.10;99.90
40808;DHT22;26523;52.504;13.498;2023-04-03T03:50:48;-1.10;99.90
40808;DHT22;26523;52.504;13.498;2023-04-03T03:53:14;-1.00;99.90
40808;DHT22;26523;52.504;13.498;2023-04-03T03:55:40;-1.00;99.90
40808;DHT22;26523;52.504;13.498;2023-04-03T03:58:06;-1.10;99.90
40808;DHT22;26523;52.504;13.498;2023-04-03T04:00:32;-1.00;99.90
40808;DHT22;26523;52.504;13.498;2023-04-03T04:02:57;-1.10;99.90
40808;DHT22;26523;52.504;13.498;2023-04-03T04:05:23;-1.10;99.90
40808;DHT22;26523;52.504;13.498;2023-04-03T04:07:48;-1.10;99.90
40808;DHT22;26523;52.504;13.498;2023-04-03T04:10:14;-1.10;99.90
40808;DHT22;26523;52.504;13.498;2023-04-03T04:12:40;-1.20;99.90
40808;DHT22;26523;52.504;13.498;2023-04-03T04:15:06;-1.20;99.90
40808;DHT22;26523;52.504;13.498;2023-04-03T04:17:32;-1.10;99.90
40808;DHT22;26523;52.504;13.498;2023-04-03T04:19:57;-1.10;99.90
40808;DHT22;26523;52.504;13.498;2023-04-03T04:22:23;-1.10;99.90
40808;DHT22;26523;52.504;13.498;2023-04-03T04:24:49;-1.10;99.90
40808;DHT22;26523;52.504;13.498;2023-04-03T04:27:14;-1.20;99.90
40808;DHT22;26523;52.504;13.498;2023-04-03T04:29:41;-1.20;99.90
40808;DHT22;26523;52.504;13.498;2023-04-03T04:32:07;-1.10;99.90
40808;DHT22;26523;52.504;13.498;2023-04-03T04:34:32;-1.20;99.90
40808;DHT22;26523;52.504;13.498;2023-04-03T04:36:58;-1.10;99.90
40808;DHT22;26523;52.504;13.498;2023-04-03T04:39:24;-1.20;99.90
40808;DHT22;26523;52.504;13.498;2023-04-03T04:41:49;-1.20;99.90
40808;DHT22;26523;52.504;13.498;2023-04-03T04:44:15;-1.10;99.90
40808;DHT22;26523;52.504;13.498;2023-04-03T04:46:41;-1.10;99.90
40808;DHT22;26523;52.504;13.498;2023-04-03T04:49:07;-1.10;99.90
40808;DHT22;26523;52.504;13.498;2023-04-03T04:51:32;-1.20;99.90
40808;DHT22;26523;52.504;13.498;2023-04-03T04:53:58;-1.20;99.90
40808;DHT22;26523;52.504;13.498;2023-04-03T04:56:23;-1.10;99.90
40808;DHT22;26523;52.504;13.498;2023-04-03T04:58:50;-1.10;99.90
40808;DHT22;26523;52.504;13.498;2023-04-03T05:01:16;-0.90;99.90
40808;DHT22;26523;52.504;13.498;2023-04-03T05:03:41;-0.90;99.90
40808;DHT22;26523;52.504;13.498;2023-04-03T05:06:07;-0.90;99.90
40808;DHT22;26523;52.504;13.498;2023-04-03T05:08:33;-0.90;99.90
40808;DHT22;26523;52.504;13.498;2023-04-03T05:10:59;-0.90;99.90
40808;DHT22;26523;52.504;13.498;2023-04-03T05:13:24;-0.90;99.90
40808;DHT22;26523;52.504;13.498;2023-04-03T05:15:50;-0.90;99.90
40808;DHT22;26523;52.504;13.498;2023-04-03T05:18:16;-0.80;99.90
40808;DHT22;26523;52.504;13.498;2023-04-03T05:20:41;-0.70;99.90
40808;DHT22;26523;52.504;13.498;2023-04-03T05:23:09;-0.60;99.90
40808;DHT22;26523;52.504;13.498;2023-04-03T05:25:38;-0.60;99.90
40808;DHT22;26523;52.504;13.498;2023-04-03T05:28:03;-0.60;99.90
40808;DHT22;26523;52.504;13.498;2023-04-03T05:30:29;-0.60;99.90
40808;DHT22;26523;52.504;13.498;2023-04-03T05:32:55;-0.50;99.90
40808;DHT22;26523;52.504;13.498;2023-04-03T05:35:21;-0.40;99.90
40808;DHT22;26523;52.504;13.498;2023-04-03T05:37:46;-0.40;99.90
40808;DHT22;26523;52.504;13.498;2023-04-03T05:40:12;-0.30;99.90
40808;DHT22;26523;52.504;13.498;2023-04-03T05:42:38;-0.20;99.90
40808;DHT22;26523;52.504;13.498;2023-04-03T05:45:04;-0.20;99.90
40808;DHT22;26523;52.504;13.498;2023-04-03T05:47:30;-0.10;99.90
40808;DHT22;26523;52.504;13.498;2023-04-03T05:49:56;0.00;99.90
40808;DHT22;26523;52.504;13.498;2023-04-03T05:52:30;0.10;99.90
40808;DHT22;26523;52.504;13.498;2023-04-03T05:54:56;0.10;99.90
40808;DHT22;26523;52.504;13.498;2023-04-03T05:57:22;0.20;99.90
40808;DHT22;26523;52.504;13.498;2023-04-03T05:59:48;0.30;99.90
40808;DHT22;26523;52.504;13.498;2023-04-03T06:02:19;0.40;99.90
40808;DHT22;26523;52.504;13.498;2023-04-03T06:04:45;0.40;99.90
40808;DHT22;26523;52.504;13.498;2023-04-03T06:07:17;0.50;99.90
40808;DHT22;26523;52.504;13.498;2023-04-03T06:09:44;0.60;99.90
40808;DHT22;26523;52.504;13.498;2023-04-03T06:12:10;0.60;99.90
40808;DHT22;26523;52.504;13.498;2023-04-03T06:14:36;0.70;99.90
40808;DHT22;26523;52.504;13.498;2023-04-03T06:17:03;0.70;99.90
40808;DHT22;26523;52.504;13.498;2023-04-03T06:19:30;0.80;99.90
40808;DHT22;26523;52.504;13.498;2023-04-03T06:21:56;0.90;99.90
40808;DHT22;26523;52.504;13.498;2023-04-03T06:24:21;1.00;99.90
40808;DHT22;26523;52.504;13.498;2023-04-03T06:26:49;1.20;99.90
40808;DHT22;26523;52.504;13.498;2023-04-03T06:29:16;1.20;99.90
40808;DHT22;26523;52.504;13.498;2023-04-03T06:31:42;1.20;99.90
40808;DHT22;26523;52.504;13.498;2023-04-03T06:34:08;1.30;99.90
40808;DHT22;26523;52.504;13.498;2023-04-03T06:36:34;1.40;99.90
40808;DHT22;26523;52.504;13.498;2023-04-03T06:39:00;1.50;99.90
40808;DHT22;26523;52.504;13.498;2023-04-03T06:41:26;1.60;99.90
40808;DHT22;26523;52.504;13.498;2023-04-03T06:43:52;1.70;99.90
40808;DHT22;26523;52.504;13.498;2023-04-03T06:46:20;1.70;99.90
40808;DHT22;26523;52.504;13.498;2023-04-03T06:48:46;1.70;99.90
40808;DHT22;26523;52.504;13.498;2023-04-03T06:53:46;2.00;99.90
40808;DHT22;26523;52.504;13.498;2023-04-03T06:56:12;2.10;99.90
40808;DHT22;26523;52.504;13.498;2023-04-03T06:58:39;2.20;99.90
40808;DHT22;26523;52.504;13.498;2023-04-03T07:01:04;2.30;99.90
40808;DHT22;26523;52.504;13.498;2023-04-03T07:03:30;2.50;99.90
40808;DHT22;26523;52.504;13.498;2023-04-03T07:05:56;2.50;99.90
40808;DHT22;26523;52.504;13.498;2023-04-03T07:08:22;2.60;99.90
40808;DHT22;26523;52.504;13.498;2023-04-03T07:10:49;2.70;99.90
40808;DHT22;26523;52.504;13.498;2023-04-03T07:13:15;3.00;99.90
40808;DHT22;26523;52.504;13.498;2023-04-03T07:15:41;2.90;99.90
40808;DHT22;26523;52.504;13.498;2023-04-03T07:18:07;2.90;99.90
40808;DHT22;26523;52.504;13.498;2023-04-03T07:20:33;3.00;99.90
40808;DHT22;26523;52.504;13.498;2023-04-03T07:22:59;3.70;99.90
40808;DHT22;26523;52.504;13.498;2023-04-03T07:25:25;5.80;99.90
40808;DHT22;26523;52.504;13.498;2023-04-03T07:27:51;9.10;96.10
40808;DHT22;26523;52.504;13.498;2023-04-03T07:30:19;10.30;89.80
40808;DHT22;26523;52.504;13.498;2023-04-03T07:32:46;11.00;84.30
40808;DHT22;26523;52.504;13.498;2023-04-03T07:35:12;10.60;80.80
40808;DHT22;26523;52.504;13.498;2023-04-03T07:37:37;10.20;80.40
40808;DHT22;26523;52.504;13.498;2023-04-03T07:40:04;9.60;82.60
40808;DHT22;26523;52.504;13.498;2023-04-03T07:42:29;8.60;82.30
40808;DHT22;26523;52.504;13.498;2023-04-03T07:44:55;7.30;84.50
40808;DHT22;26523;52.504;13.498;2023-04-03T07:47:22;6.70;87.30
40808;DHT22;26523;52.504;13.498;2023-04-03T07:49:47;7.10;88.30
40808;DHT22;26523;52.504;13.498;2023-04-03T07:52:13;6.10;87.90
40808;DHT22;26523;52.504;13.498;2023-04-03T07:54:41;5.40;89.80
40808;DHT22;26523;52.504;13.498;2023-04-03T07:57:07;4.80;91.30
40808;DHT22;26523;52.504;13.498;2023-04-03T07:59:32;5.00;91.50
40808;DHT22;26523;52.504;13.498;2023-04-03T08:01:58;5.40;91.10
40808;DHT22;26523;52.504;13.498;2023-04-03T08:04:24;4.80;91.60
40808;DHT22;26523;52.504;13.498;2023-04-03T08:06:51;4.60;92.60
40808;DHT22;26523;52.504;13.498;2023-04-03T08:09:17;6.40;91.30
40808;DHT22;26523;52.504;13.498;2023-04-03T08:11:44;6.60;88.20
40808;DHT22;26523;52.504;13.498;2023-04-03T08:14:10;5.40;90.70
40808;DHT22;26523;52.504;13.498;2023-04-03T08:16:43;4.30;92.60
40808;DHT22;26523;52.504;13.498;2023-04-03T08:19:08;4.60;93.00
40808;DHT22;26523;52.504;13.498;2023-04-03T08:21:36;5.80;91.50
40808;DHT22;26523;52.504;13.498;2023-04-03T08:24:02;5.90;90.50
40808;DHT22;26523;52.504;13.498;2023-04-03T08:26:28;5.60;91.40
40808;DHT22;26523;52.504;13.498;2023-04-03T08:28:54;5.00;91.90
40808;DHT22;26523;52.504;13.498;2023-04-03T08:31:20;5.00;92.30
40808;DHT22;26523;52.504;13.498;2023-04-03T08:33:46;4.80;92.00
40808;DHT22;26523;52.504;13.498;2023-04-03T08:36:27;4.60;92.00
40808;DHT22;26523;52.504;13.498;2023-04-03T08:38:54;4.50;92.20
40808;DHT22;26523;52.504;13.498;2023-04-03T08:41:34;4.20;91.40
40808;DHT22;26523;52.504;13.498;2023-04-03T08:44:36;3.90;91.70
40808;DHT22;26523;52.504;13.498;2023-04-03T08:49:58;3.70;92.00
40808;DHT22;26523;52.504;13.498;2023-04-03T08:54:56;4.10;91.40
40808;DHT22;26523;52.504;13.498;2023-04-03T08:57:42;4.60;90.20
40808;DHT22;26523;52.504;13.498;2023-04-03T09:02:46;4.30;91.20
40808;DHT22;26523;52.504;13.498;2023-04-03T09:05:35;5.70;90.80
40808;DHT22;26523;52.504;13.498;2023-04-03T09:10:49;7.20;84.90
40808;DHT22;26523;52.504;13.498;2023-04-03T09:13:35;6.20;86.20
40808;DHT22;26523;52.504;13.498;2023-04-03T09:16:17;6.70;84.40
40808;DHT22;26523;52.504;13.498;2023-04-03T09:18:51;5.90;85.50
40808;DHT22;26523;52.504;13.498;2023-04-03T09:21:31;6.10;85.50
40808;DHT22;26523;52.504;13.498;2023-04-03T09:24:01;6.20;82.10
40808;DHT22;26523;52.504;13.498;2023-04-03T09:26:40;6.00;84.70
40808;DHT22;26523;52.504;13.498;2023-04-03T09:29:07;6.00;85.80
40808;DHT22;26523;52.504;13.498;2023-04-03T09:31:39;6.70;85.50
40808;DHT22;26523;52.504;13.498;2023-04-03T09:34:26;6.70;84.50
40808;DHT22;26523;52.504;13.498;2023-04-03T09:36:55;6.20;83.50
40808;DHT22;26523;52.504;13.498;2023-04-03T09:39:23;5.40;83.40
40808;DHT22;26523;52.504;13.498;2023-04-03T09:42:13;4.70;86.90
40808;DHT22;26523;52.504;13.498;2023-04-03T09:44:41;4.70;88.40
40808;DHT22;26523;52.504;13.498;2023-04-03T09:49:47;5.00;88.80
40808;DHT22;26523;52.504;13.498;2023-04-03T09:52:31;5.00;88.00
40808;DHT22;26523;52.504;13.498;2023-04-03T09:55:19;4.90;88.50
40808;DHT22;26523;52.504;13.498;2023-04-03T09:57:47;4.90;89.30
40808;DHT22;26523;52.504;13.498;2023-04-03T10:00:26;4.90;89.80
40808;DHT22;26523;52.504;13.498;2023-04-03T10:02:54;5.10;89.90
40808;DHT22;26523;52.504;13.498;2023-04-03T10:05:40;5.00;90.00
40808;DHT22;26523;52.504;13.498;2023-04-03T10:08:21;5.20;90.30
40808;DHT22;26523;52.504;13.498;2023-04-03T10:11:06;4.70;90.00
40808;DHT22;26523;52.504;13.498;2023-04-03T10:13:33;4.70;90.50
40808;DHT22;26523;52.504;13.498;2023-04-03T10:16:11;4.60;90.00
40808;DHT22;26523;52.504;13.498;2023-04-03T10:18:44;5.10;90.10
40808;DHT22;26523;52.504;13.498;2023-04-03T10:24:15;5.30;89.70
40808;DHT22;26523;52.504;13.498;2023-04-03T10:27:04;5.30;89.80
40808;DHT22;26523;52.504;13.498;2023-04-03T10:29:55;5.60;88.70
40808;DHT22;26523;52.504;13.498;2023-04-03T10:32:35;5.60;88.90
40808;DHT22;26523;52.504;13.498;2023-04-03T10:37:53;6.00;89.80
40808;DHT22;26523;52.504;13.498;2023-04-03T10:49:22;4.80;90.40
40808;DHT22;26523;52.504;13.498;2023-04-03T10:52:17;4.90;90.40
40808;DHT22;26523;52.504;13.498;2023-04-03T10:55:04;5.00;89.40
40808;DHT22;26523;52.504;13.498;2023-04-03T10:57:32;5.20;89.90
40808;DHT22;26523;52.504;13.498;2023-04-03T11:00:14;5.20;89.40
40808;DHT22;26523;52.504;13.498;2023-04-03T11:02:52;5.50;89.50
40808;DHT22;26523;52.504;13.498;2023-04-03T11:05:37;5.50;88.90
40808;DHT22;26523;52.504;13.498;2023-04-03T11:08:27;5.60;89.30
40808;DHT22;26523;52.504;13.498;2023-04-03T11:11:00;5.00;89.80
40808;DHT22;26523;52.504;13.498;2023-04-03T11:16:00;4.70;90.80
40808;DHT22;26523;52.504;13.498;2023-04-03T11:23:30;5.20;91.00
40808;DHT22;26523;52.504;13.498;2023-04-03T11:28:33;5.20;90.80
40808;DHT22;26523;52.504;13.498;2023-04-03T11:34:18;4.80;91.50
40808;DHT22;26523;52.504;13.498;2023-04-03T11:36:49;5.00;91.80
40808;DHT22;26523;52.504;13.498;2023-04-03T11:39:26;5.50;91.40
40808;DHT22;26523;52.504;13.498;2023-04-03T11:41:53;5.60;91.10
40808;DHT22;26523;52.504;13.498;2023-04-03T11:44:31;5.50;91.10
40808;DHT22;26523;52.504;13.498;2023-04-03T11:47:00;5.00;91.70
40808;DHT22;26523;52.504;13.498;2023-04-03T11:49:58;5.00;92.10
40808;DHT22;26523;52.504;13.498;2023-04-03T12:18:58;5.60;89.60
40808;DHT22;26523;52.504;13.498;2023-04-03T12:26:50;5.40;88.50
40808;DHT22;26523;52.504;13.498;2023-04-03T12:40:34;6.60;88.80
40808;DHT22;26523;52.504;13.498;2023-04-03T12:46:03;6.00;84.70
40808;DHT22;26523;52.504;13.498;2023-04-03T12:48:34;5.90;88.00
40808;DHT22;26523;52.504;13.498;2023-04-03T12:51:03;5.60;88.30
40808;DHT22;26523;52.504;13.498;2023-04-03T12:53:32;5.60;88.10
40808;DHT22;26523;52.504;13.498;2023-04-03T12:56:23;5.40;88.70
40808;DHT22;26523;52.504;13.498;2023-04-03T12:58:51;5.70;88.90
40808;DHT22;26523;52.504;13.498;2023-04-03T13:01:20;5.60;87.90
40808;DHT22;26523;52.504;13.498;2023-04-03T13:03:55;5.60;87.90
40808;DHT22;26523;52.504;13.498;2023-04-03T13:06:26;5.30;88.10
40808;DHT22;26523;52.504;13.498;2023-04-03T13:09:01;5.40;89.30
40808;DHT22;26523;52.504;13.498;2023-04-03T13:11:32;5.80;89.60
40808;DHT22;26523;52.504;13.498;2023-04-03T13:14:04;5.50;90.00
40808;DHT22;26523;52.504;13.498;2023-04-03T13:16:38;5.60;90.00
40808;DHT22;26523;52.504;13.498;2023-04-03T13:19:06;5.70;89.60
40808;DHT22;26523;52.504;13.498;2023-04-03T13:21:41;5.70;89.40
40808;DHT22;26523;52.504;13.498;2023-04-03T13:24:08;5.90;89.30
40808;DHT22;26523;52.504;13.498;2023-04-03T13:26:34;5.50;90.30
40808;DHT22;26523;52.504;13.498;2023-04-03T13:29:06;5.40;90.50
40808;DHT22;26523;52.504;13.498;2023-04-03T13:31:37;5.40;91.10
40808;DHT22;26523;52.504;13.498;2023-04-03T13:34:11;5.60;91.20
40808;DHT22;26523;52.504;13.498;2023-04-03T13:36:41;5.70;90.60
40808;DHT22;26523;52.504;13.498;2023-04-03T13:41:43;5.10;90.40
40808;DHT22;26523;52.504;13.498;2023-04-03T13:46:56;5.10;91.40
40808;DHT22;26523;52.504;13.498;2023-04-03T13:51:53;5.40;91.50
40808;DHT22;26523;52.504;13.498;2023-04-03T13:54:24;5.60;91.10
40808;DHT22;26523;52.504;13.498;2023-04-03T13:56:55;5.60;91.60
40808;DHT22;26523;52.504;13.498;2023-04-03T13:59:31;5.80;91.90
40808;DHT22;26523;52.504;13.498;2023-04-03T14:07:12;6.00;91.70
40808;DHT22;26523;52.504;13.498;2023-04-03T14:09:37;5.60;91.50
40808;DHT22;26523;52.504;13.498;2023-04-03T14:12:11;5.90;91.90
40808;DHT22;26523;52.504;13.498;2023-04-03T14:14:39;6.10;91.20
40808;DHT22;26523;52.504;13.498;2023-04-03T14:17:17;6.10;91.10
40808;DHT22;26523;52.504;13.498;2023-04-03T14:19:44;5.80;90.80
40808;DHT22;26523;52.504;13.498;2023-04-03T14:22:17;5.50;91.50
40808;DHT22;26523;52.504;13.498;2023-04-03T14:24:43;5.00;92.40
40808;DHT22;26523;52.504;13.498;2023-04-03T14:27:37;4.90;92.80
40808;DHT22;26523;52.504;13.498;2023-04-03T14:30:06;5.10;92.70
40808;DHT22;26523;52.504;13.498;2023-04-03T14:32:33;5.50;92.20
40808;DHT22;26523;52.504;13.498;2023-04-03T14:34:59;5.90;91.80
40808;DHT22;26523;52.504;13.498;2023-04-03T14:37:29;6.10;91.70
40808;DHT22;26523;52.504;13.498;2023-04-03T14:39:56;6.20;91.70
40808;DHT22;26523;52.504;13.498;2023-04-03T14:42:26;6.10;91.70
40808;DHT22;26523;52.504;13.498;2023-04-03T14:44:52;6.20;92.00
40808;DHT22;26523;52.504;13.498;2023-04-03T14:47:24;6.20;91.80
40808;DHT22;26523;52.504;13.498;2023-04-03T14:49:51;6.20;91.80
40808;DHT22;26523;52.504;13.498;2023-04-03T14:52:24;5.90;91.80
40808;DHT22;26523;52.504;13.498;2023-04-03T14:54:52;5.60;92.50
40808;DHT22;26523;52.504;13.498;2023-04-03T14:57:18;5.50;93.10
40808;DHT22;26523;52.504;13.498;2023-04-03T14:59:45;5.40;92.90
40808;DHT22;26523;52.504;13.498;2023-04-03T15:02:36;5.40;93.40
40808;DHT22;26523;52.504;13.498;2023-04-03T15:05:05;5.20;93.40
40808;DHT22;26523;52.504;13.498;2023-04-03T15:07:37;5.10;93.90
40808;DHT22;26523;52.504;13.498;2023-04-03T15:10:19;4.80;94.40
40808;DHT22;26523;52.504;13.498;2023-04-03T15:12:46;4.90;94.60
40808;DHT22;26523;52.504;13.498;2023-04-03T15:15:13;4.70;94.80
40808;DHT22;26523;52.504;13.498;2023-04-03T15:17:40;4.70;95.10
40808;DHT22;26523;52.504;13.498;2023-04-03T15:20:14;4.60;95.00
40808;DHT22;26523;52.504;13.498;2023-04-03T15:22:40;4.60;95.40
40808;DHT22;26523;52.504;13.498;2023-04-03T15:25:06;4.80;95.40
40808;DHT22;26523;52.504;13.498;2023-04-03T15:27:32;4.90;95.40
40808;DHT22;26523;52.504;13.498;2023-04-03T15:29:58;4.80;95.40
40808;DHT22;26523;52.504;13.498;2023-04-03T15:32:24;4.80;95.30
40808;DHT22;26523;52.504;13.498;2023-04-03T15:34:50;4.60;95.20
40808;DHT22;26523;52.504;13.498;2023-04-03T15:37:15;4.50;95.30
40808;DHT22;26523;52.504;13.498;2023-04-03T15:39:41;4.50;95.10
40808;DHT22;26523;52.504;13.498;2023-04-03T15:42:07;4.50;95.00
40808;DHT22;26523;52.504;13.498;2023-04-03T15:44:34;4.50;94.90
40808;DHT22;26523;52.504;13.498;2023-04-03T15:47:00;4.60;94.90
40808;DHT22;26523;52.504;13.498;2023-04-03T15:49:27;4.60;94.90
40808;DHT22;26523;52.504;13.498;2023-04-03T15:51:53;4.60;95.30
40808;DHT22;26523;52.504;13.498;2023-04-03T15:54:19;4.40;95.50
40808;DHT22;26523;52.504;13.498;2023-04-03T15:56:44;4.20;95.90
40808;DHT22;26523;52.504;13.498;2023-04-03T15:59:10;4.00;96.30
40808;DHT22;26523;52.504;13.498;2023-04-03T16:01:37;4.00;96.60
40808;DHT22;26523;52.504;13.498;2023-04-03T16:04:05;4.10;96.40
40808;DHT22;26523;52.504;13.498;2023-04-03T16:06:32;4.10;96.50
40808;DHT22;26523;52.504;13.498;2023-04-03T16:08:59;4.30;96.60
40808;DHT22;26523;52.504;13.498;2023-04-03T16:11:26;4.30;95.70
40808;DHT22;26523;52.504;13.498;2023-04-03T16:13:53;4.40;95.80
40808;DHT22;26523;52.504;13.498;2023-04-03T16:16:18;4.50;95.90
40808;DHT22;26523;52.504;13.498;2023-04-03T16:18:44;4.80;95.80
40808;DHT22;26523;52.504;13.498;2023-04-03T16:21:12;5.00;95.40
40808;DHT22;26523;52.504;13.498;2023-04-03T16:23:39;5.00;94.80
40808;DHT22;26523;52.504;13.498;2023-04-03T16:26:05;5.00;95.10
40808;DHT22;26523;52.504;13.498;2023-04-03T16:28:31;5.00;95.30
40808;DHT22;26523;52.504;13.498;2023-04-03T16:30:57;4.90;95.10
40808;DHT22;26523;52.504;13.498;2023-04-03T16:33:23;4.90;95.20
40808;DHT22;26523;52.504;13.498;2023-04-03T16:35:50;4.70;94.80
40808;DHT22;26523;52.504;13.498;2023-04-03T16:38:16;4.50;95.40
40808;DHT22;26523;52.504;13.498;2023-04-03T16:40:41;4.60;95.60
40808;DHT22;26523;52.504;13.498;2023-04-03T16:43:07;4.50;95.80
40808;DHT22;26523;52.504;13.498;2023-04-03T16:45:33;4.50;96.30
40808;DHT22;26523;52.504;13.498;2023-04-03T16:47:58;4.50;96.70
40808;DHT22;26523;52.504;13.498;2023-04-03T16:50:26;4.40;97.30
40808;DHT22;26523;52.504;13.498;2023-04-03T16:52:52;4.30;96.70
40808;DHT22;26523;52.504;13.498;2023-04-03T16:55:18;4.20;97.10
40808;DHT22;26523;52.504;13.498;2023-04-03T16:57:43;4.20;97.10
40808;DHT22;26523;52.504;13.498;2023-04-03T17:00:09;4.10;97.10
40808;DHT22;26523;52.504;13.498;2023-04-03T17:02:35;4.00;97.20
40808;DHT22;26523;52.504;13.498;2023-04-03T17:05:01;4.00;97.30
40808;DHT22;26523;52.504;13.498;2023-04-03T17:07:28;3.90;97.60
40808;DHT22;26523;52.504;13.498;2023-04-03T17:09:53;4.00;97.70
40808;DHT22;26523;52.504;13.498;2023-04-03T17:12:20;4.00;98.00
40808;DHT22;26523;52.504;13.498;2023-04-03T17:14:46;4.00;97.90
40808;DHT22;26523;52.504;13.498;2023-04-03T17:17:13;4.00;97.80
40808;DHT22;26523;52.504;13.498;2023-04-03T17:19:39;4.00;97.70
40808;DHT22;26523;52.504;13.498;2023-04-03T17:22:07;4.00;98.20